Overview Statistics Trail Chart Weather Telemetry Raw packets
 

This is the latest recevied weather packets stored in our database for station/object KC2GYU. If no packets are shown the sender has not sent any weather packets the latest 10 day(s).

<< 29 30 31 32 33 34 35 >>
Time Temp. Humidity Pressure Rain* Wind** Luminosity Snow
1777910869 20.56° C 68% 1014.5 hPa 0 mm - 676 W/m² -
1777910565 21.11° C 66% 1014.9 hPa 0 mm - 673 W/m² -
1777910263 20.56° C 68% 1015 hPa 0 mm - 671 W/m² -
1777909960 20.56° C 61% 1014.9 hPa 0 mm - 526 W/m² -
1777909657 20° C 67% 1015.1 hPa 0 mm - 650 W/m² -
1777909354 19.44° C 67% 1014.9 hPa 0 mm - 646 W/m² -
1777909075 19.44° C 69% 1015.2 hPa 0 mm - 649 W/m² -
1777908749 20° C 68% 1015.2 hPa 0 mm - 644 W/m² -
1777908446 20° C 66% 1015.1 hPa 0 mm - 641 W/m² -
1777908143 20° C 65% 1015.1 hPa 0 mm - 621 W/m² -
1777907839 20° C 64% 1015.4 hPa 0 mm - 619 W/m² -
1777907535 20° C 61% 1015.3 hPa 0 mm - 614 W/m² -
1777907231 20° C 59% 1015.4 hPa 0 mm - 615 W/m² -
1777906928 19.44° C 62% 1015.4 hPa 0 mm - 605 W/m² -
1777906626 19.44° C 61% 1015.3 hPa 0 mm - 595 W/m² -
1777906321 20° C 58% 1015.1 hPa 0 mm - 588 W/m² -
1777906018 19.44° C 59% 1015.5 hPa 0 mm - 574 W/m² -
1777905714 18.89° C 63% 1015.4 hPa 0 mm - 550 W/m² -
1777905411 18.89° C 63% 1015.4 hPa 0 mm - 542 W/m² -
1777905109 18.89° C 63% 1015.4 hPa 0 mm - 317 W/m² -
1777904806 18.33° C 65% 1015.4 hPa 0 mm - 535 W/m² -
1777904503 18.33° C 62% 1015.2 hPa 0 mm - 535 W/m² -
1777904199 18.33° C 61% 1015.6 hPa 0 mm - 525 W/m² -
1777903897 18.89° C 61% 1015.3 hPa 0 mm - 414 W/m² -
1777903593 18.33° C 63% 1015.5 hPa 0 mm - 521 W/m² -

* Rain latest hour (hover to see other rain measurements)
** Current wind speed in m/s (hover to see current wind gust speed)